createdAt,value
2022-08-11T00:03:19.794Z,50.03
2022-08-11T00:07:24.009Z,50.15
2022-08-11T00:11:35.464Z,50.18
2022-08-11T00:15:42.365Z,50.22
2022-08-11T00:20:11.602Z,50.30
2022-08-11T00:24:13.177Z,50.47
2022-08-11T00:28:27.015Z,50.48
2022-08-11T00:32:31.870Z,50.75
2022-08-11T00:36:47.288Z,50.80
2022-08-11T00:40:58.220Z,51.09
2022-08-11T00:45:09.191Z,51.30
2022-08-11T00:49:25.108Z,51.16
2022-08-11T00:53:40.129Z,51.34
2022-08-11T00:58:13.675Z,51.33
2022-08-11T01:02:46.279Z,51.33
2022-08-11T01:08:01.685Z,51.40
2022-08-11T01:12:29.325Z,51.48
2022-08-11T01:17:05.187Z,51.63
2022-08-11T01:21:44.562Z,51.98
2022-08-11T01:26:21.022Z,51.99
2022-08-11T01:30:57.197Z,52.13
2022-08-11T01:35:37.383Z,52.34
2022-08-11T01:40:17.225Z,52.40
2022-08-11T01:44:53.986Z,52.44
2022-08-11T01:50:05.751Z,52.63
2022-08-11T01:53:48.793Z,52.71
2022-08-11T01:57:57.804Z,52.87
2022-08-11T02:02:44.670Z,53.06
2022-08-11T02:06:56.618Z,52.98
2022-08-11T02:11:28.154Z,53.17
2022-08-11T02:15:40.708Z,53.48
2022-08-11T02:20:12.124Z,53.40
2022-08-11T02:24:20.539Z,53.67
2022-08-11T02:28:30.697Z,53.70
2022-08-11T02:32:56.560Z,53.81
2022-08-11T02:37:16.179Z,53.90
2022-08-11T02:41:55.801Z,54.08
2022-08-11T02:46:22.961Z,53.97
2022-08-11T02:50:32.272Z,54.34
2022-08-11T02:54:43.496Z,54.42
2022-08-11T02:59:08.766Z,54.64
2022-08-11T03:03:25.767Z,54.92
2022-08-11T03:07:35.127Z,55.16
2022-08-11T03:12:14.625Z,55.24
2022-08-11T03:16:40.455Z,55.22
2022-08-11T03:20:52.486Z,55.10
2022-08-11T03:25:03.408Z,55.26
2022-08-11T03:29:12.953Z,55.21
2022-08-11T03:33:44.510Z,55.27
2022-08-11T03:37:53.622Z,55.40
2022-08-11T03:42:10.286Z,55.43
2022-08-11T03:46:24.452Z,55.70
2022-08-11T03:50:55.646Z,55.96
2022-08-11T03:55:11.393Z,56.00
2022-08-11T04:00:08.397Z,55.96
2022-08-11T04:04:31.401Z,56.02
2022-08-11T04:09:07.719Z,56.29
2022-08-11T04:13:52.225Z,56.39
2022-08-11T04:18:21.997Z,56.48
2022-08-11T04:22:55.202Z,56.81
2022-08-11T04:27:36.854Z,57.02
2022-08-11T04:32:02.065Z,57.14
2022-08-11T04:36:47.406Z,57.21
2022-08-11T04:41:14.438Z,57.49
2022-08-11T04:45:52.178Z,57.39
2022-08-11T04:50:35.762Z,57.30
2022-08-11T04:55:14.230Z,57.48
2022-08-11T05:00:18.432Z,57.81
2022-08-11T05:05:07.788Z,57.71
2022-08-11T05:09:26.649Z,57.91
2022-08-11T05:13:50.712Z,57.85
2022-08-11T05:18:19.576Z,57.29
2022-08-11T05:22:58.507Z,57.43
2022-08-11T05:27:22.816Z,57.06
2022-08-11T05:31:50.615Z,57.04
2022-08-11T05:36:03.484Z,56.83
2022-08-11T05:40:27.619Z,56.49
2022-08-11T05:44:50.261Z,56.06
2022-08-11T05:49:11.586Z,55.84
2022-08-11T05:53:45.737Z,55.90
2022-08-11T05:57:52.075Z,55.02
2022-08-11T06:02:02.586Z,54.39
2022-08-11T06:06:10.726Z,53.72
2022-08-11T06:10:15.121Z,53.35
2022-08-11T06:14:20.634Z,53.42
2022-08-11T06:18:25.795Z,52.62
2022-08-11T06:22:29.598Z,52.18
2022-08-11T06:26:40.837Z,51.66
2022-08-11T06:30:56.291Z,51.29
2022-08-11T06:35:20.033Z,50.56
2022-08-11T06:39:30.320Z,49.95
2022-08-11T06:43:42.101Z,50.20
2022-08-11T06:48:01.267Z,49.29
2022-08-11T06:52:35.107Z,48.83
2022-08-11T06:57:06.622Z,48.62
2022-08-11T07:01:22.212Z,48.38
2022-08-11T07:05:34.564Z,47.45
2022-08-11T07:10:25.951Z,47.34
2022-08-11T07:14:49.706Z,46.75
2022-08-11T07:19:13.429Z,46.73
2022-08-11T07:23:37.759Z,46.61
2022-08-11T07:28:06.926Z,45.77
2022-08-11T07:32:16.406Z,45.26
2022-08-11T07:36:20.236Z,44.42
2022-08-11T07:40:25.052Z,44.83
2022-08-11T07:44:34.813Z,44.75
2022-08-11T07:48:56.166Z,43.62
2022-08-11T07:53:00.987Z,43.19
2022-08-11T07:57:46.089Z,43.27
2022-08-11T08:02:06.536Z,43.41
2022-08-11T08:06:35.890Z,43.11
2022-08-11T08:10:57.193Z,42.21
2022-08-11T08:15:19.952Z,42.03
2022-08-11T08:19:25.408Z,41.87
2022-08-11T08:23:34.376Z,41.54
2022-08-11T08:27:39.463Z,41.77
2022-08-11T08:31:43.978Z,41.36
2022-08-11T08:35:54.108Z,40.89
2022-08-11T08:40:00.590Z,40.90
2022-08-11T08:44:37.213Z,40.66
2022-08-11T08:48:32.618Z,40.36
2022-08-11T08:52:43.947Z,40.16
2022-08-11T08:56:50.098Z,39.96
2022-08-11T09:00:55.658Z,40.06
2022-08-11T09:04:59.974Z,38.60
2022-08-11T09:09:06.116Z,38.71
2022-08-11T09:13:09.485Z,37.66
2022-08-11T09:17:13.174Z,37.73
2022-08-11T09:21:39.270Z,37.35
2022-08-11T09:26:03.839Z,36.55
2022-08-11T09:30:08.283Z,36.10
2022-08-11T09:34:15.889Z,35.84
2022-08-11T09:38:38.557Z,35.61
2022-08-11T09:43:13.038Z,35.32
2022-08-11T09:47:24.542Z,35.83
2022-08-11T09:51:31.942Z,35.70
2022-08-11T09:55:35.459Z,35.08
2022-08-11T09:59:41.258Z,35.72
2022-08-11T10:03:44.736Z,35.49
2022-08-11T10:07:52.995Z,34.48
2022-08-11T10:11:59.266Z,34.15
2022-08-11T10:16:15.710Z,33.87
2022-08-11T10:20:25.769Z,34.02
2022-08-11T10:24:46.811Z,33.99
2022-08-11T10:29:11.915Z,34.09
2022-08-11T10:33:36.746Z,34.32
2022-08-11T10:38:08.877Z,33.69
2022-08-11T10:42:35.344Z,33.98
2022-08-11T10:47:02.415Z,33.55
2022-08-11T10:51:15.376Z,33.28
2022-08-11T10:55:46.929Z,32.67
2022-08-11T10:59:50.838Z,32.91
2022-08-11T11:03:58.695Z,32.79
2022-08-11T11:08:31.950Z,33.34
2022-08-11T11:12:57.791Z,33.39
2022-08-11T11:17:34.689Z,32.75
2022-08-11T11:21:38.816Z,32.98
2022-08-11T11:26:10.862Z,32.03
2022-08-11T11:30:16.491Z,31.73
2022-08-11T11:34:47.949Z,31.94
2022-08-11T11:38:58.358Z,31.66
2022-08-11T11:43:03.755Z,31.05
2022-08-11T11:47:08.130Z,32.06
2022-08-11T11:51:14.079Z,32.09
2022-08-11T11:55:18.441Z,32.32
2022-08-11T11:59:43.445Z,32.18
2022-08-11T12:03:49.240Z,31.42
2022-08-11T12:08:14.494Z,31.26
2022-08-11T12:12:35.111Z,30.73
2022-08-11T12:16:41.935Z,30.77
2022-08-11T12:20:46.136Z,29.97
2022-08-11T12:25:07.540Z,30.30
2022-08-11T12:29:12.679Z,30.28
2022-08-11T12:33:18.023Z,29.95
2022-08-11T12:37:32.790Z,29.65
2022-08-11T12:41:54.383Z,30.18
2022-08-11T12:46:01.993Z,29.45
2022-08-11T12:50:25.634Z,29.68
2022-08-11T12:54:32.804Z,29.62
2022-08-11T12:58:38.524Z,29.50
2022-08-11T13:02:59.971Z,29.72
2022-08-11T13:07:05.432Z,29.35
2022-08-11T13:11:55.585Z,29.38
2022-08-11T13:15:52.164Z,30.09
2022-08-11T13:19:55.379Z,29.94
2022-08-11T13:24:03.505Z,30.28
2022-08-11T13:28:07.628Z,30.58
2022-08-11T13:32:11.760Z,31.35
2022-08-11T13:36:16.626Z,30.77
2022-08-11T13:40:33.204Z,31.13
2022-08-11T13:44:49.598Z,32.04
2022-08-11T13:49:00.360Z,32.22
2022-08-11T13:53:04.271Z,31.54
2022-08-11T13:58:05.937Z,31.80
2022-08-11T14:02:22.364Z,31.67
2022-08-11T14:06:05.194Z,31.81
2022-08-11T14:10:10.356Z,31.90
2022-08-11T14:14:20.427Z,32.23
2022-08-11T14:18:28.663Z,32.06
2022-08-11T14:22:33.015Z,32.65
2022-08-11T14:26:39.031Z,32.66
2022-08-11T14:31:01.559Z,32.88
2022-08-11T14:35:06.816Z,32.89
2022-08-11T14:39:13.072Z,32.42
2022-08-11T14:44:05.860Z,32.51
2022-08-11T14:48:03.090Z,31.82
2022-08-11T14:52:10.491Z,32.29
2022-08-11T14:56:30.264Z,32.49
2022-08-11T15:00:36.109Z,32.30
2022-08-11T15:04:41.569Z,32.77
2022-08-11T15:08:56.842Z,33.30
2022-08-11T15:13:00.708Z,33.44
2022-08-11T15:17:10.468Z,33.05
2022-08-11T15:21:33.899Z,33.22
2022-08-11T15:25:39.094Z,33.58
2022-08-11T15:30:01.284Z,33.50
2022-08-11T15:34:23.600Z,34.23
2022-08-11T15:38:31.418Z,34.02
2022-08-11T15:42:56.808Z,33.71
2022-08-11T15:47:03.851Z,33.64
2022-08-11T15:51:10.781Z,33.41
2022-08-11T15:55:17.219Z,33.49
2022-08-11T15:59:42.180Z,33.11
2022-08-11T16:04:09.491Z,33.08
2022-08-11T16:08:16.619Z,33.72
2022-08-11T16:12:36.994Z,33.47
2022-08-11T16:16:40.129Z,33.46
2022-08-11T16:20:44.813Z,33.62
2022-08-11T16:27:03.508Z,33.33
2022-08-11T16:29:15.481Z,33.53
2022-08-11T16:33:50.062Z,33.71
2022-08-11T16:38:05.446Z,33.86
2022-08-11T16:43:00.151Z,33.92
2022-08-11T16:47:01.879Z,34.11
2022-08-11T16:51:05.644Z,33.82
2022-08-11T16:55:10.554Z,34.20
2022-08-11T16:59:19.705Z,34.56
2022-08-11T17:03:41.883Z,35.02
2022-08-11T17:08:04.255Z,34.37
2022-08-11T17:12:27.272Z,34.49
2022-08-11T17:16:37.509Z,34.33
2022-08-11T17:20:44.344Z,34.22
2022-08-11T17:24:51.285Z,34.40
2022-08-11T17:28:59.030Z,34.87
2022-08-11T17:33:19.564Z,35.00
2022-08-11T17:37:26.190Z,34.86
2022-08-11T17:41:47.153Z,35.12
2022-08-11T17:46:08.307Z,35.49
2022-08-11T17:50:17.843Z,35.89
2022-08-11T17:54:42.435Z,35.82
2022-08-11T17:59:05.909Z,35.92
2022-08-11T18:03:27.179Z,35.60
2022-08-11T18:07:48.190Z,36.16
2022-08-11T18:12:13.014Z,36.86
2022-08-11T18:16:34.336Z,37.28
2022-08-11T18:20:56.047Z,37.18
2022-08-11T18:25:21.406Z,37.87
2022-08-11T18:29:43.928Z,37.73
2022-08-11T18:34:09.937Z,37.56
2022-08-11T18:38:35.014Z,38.30
2022-08-11T18:43:00.730Z,38.84
2022-08-11T18:47:38.397Z,38.79
2022-08-11T18:52:05.209Z,39.45
2022-08-11T18:56:25.847Z,39.91
2022-08-11T19:00:48.196Z,39.85
2022-08-11T19:05:11.195Z,40.22
2022-08-11T19:09:35.117Z,40.02
2022-08-11T19:13:57.138Z,39.70
2022-08-11T19:18:20.472Z,39.31
2022-08-11T19:22:45.412Z,39.44
2022-08-11T19:27:08.062Z,39.67
2022-08-11T19:31:29.908Z,39.82
2022-08-11T19:35:51.817Z,39.75
2022-08-11T19:40:18.009Z,40.59
2022-08-11T19:44:41.041Z,40.76
2022-08-11T19:49:03.428Z,40.89
2022-08-11T19:53:25.224Z,40.74
2022-08-11T19:57:50.179Z,40.94
2022-08-11T20:02:14.076Z,40.89
2022-08-11T20:06:37.442Z,41.03
2022-08-11T20:10:59.362Z,41.31
2022-08-11T20:15:22.257Z,41.26
2022-08-11T20:19:56.522Z,41.57
2022-08-11T20:24:19.734Z,41.99
2022-08-11T20:28:40.002Z,41.86
2022-08-11T20:33:03.370Z,42.18
2022-08-11T20:37:25.599Z,42.51
2022-08-11T20:41:58.790Z,43.14
2022-08-11T20:46:21.511Z,43.17
2022-08-11T20:50:45.823Z,43.42
2022-08-11T20:55:19.207Z,43.59
2022-08-11T20:59:50.101Z,43.37
2022-08-11T21:04:17.288Z,43.72
2022-08-11T21:08:49.085Z,43.09
2022-08-11T21:13:25.235Z,43.49
2022-08-11T21:18:00.940Z,43.31
2022-08-11T21:22:31.987Z,43.35
2022-08-11T21:27:00.331Z,43.36
2022-08-11T21:31:25.770Z,43.49
2022-08-11T21:35:47.465Z,43.17
2022-08-11T21:40:14.873Z,42.95
2022-08-11T21:44:39.491Z,42.53
2022-08-11T21:49:02.398Z,42.78
2022-08-11T21:53:23.229Z,42.81
2022-08-11T21:57:48.458Z,42.89
2022-08-11T22:02:13.150Z,43.50
2022-08-11T22:06:35.920Z,43.83
2022-08-11T22:10:57.155Z,43.96
2022-08-11T22:15:18.614Z,44.26
2022-08-11T22:19:42.075Z,44.58
2022-08-11T22:24:05.131Z,44.67
2022-08-11T22:28:28.581Z,44.91
2022-08-11T22:32:49.791Z,45.30
2022-08-11T22:37:24.197Z,45.77
2022-08-11T22:41:48.229Z,46.04
2022-08-11T22:46:09.130Z,46.03
2022-08-11T22:50:32.096Z,45.91
2022-08-11T22:54:53.877Z,45.98
2022-08-11T22:59:15.349Z,46.14
2022-08-11T23:03:38.664Z,46.61
2022-08-11T23:08:01.074Z,46.59
2022-08-11T23:12:23.515Z,46.73
2022-08-11T23:16:44.319Z,46.66
2022-08-11T23:21:05.142Z,46.85
2022-08-11T23:25:26.121Z,46.91
2022-08-11T23:29:51.460Z,46.87
2022-08-11T23:34:39.413Z,46.85
2022-08-11T23:38:56.406Z,47.01
2022-08-11T23:43:17.316Z,47.19
2022-08-11T23:47:50.540Z,47.66
2022-08-11T23:52:11.833Z,47.80
2022-08-11T23:56:33.644Z,47.81
